Time;durP1;ratioP1;P1;durP2;ratioP2;P2;SDS_P1;SDS_P2;PMS_P1;PMS_P2;Temp;Humidity;BMP_temperature;BMP_pressure;BME280_temperature;BME280_humidity;BME280_pressure;Samples;Min_cycle;Max_cycle;Signal;HPM_P1;HPM_P2
2022/08/18 00:02:11;;;;;;;20.40;12.32;;;;;;;;;;5107813;28;20062;-75
2022/08/18 00:04:37;;;;;;;15.95;11.18;;;;;;;;;;5108418;28;20043;-76
2022/08/18 00:07:08;;;;;;;17.98;12.05;;;;;;;;;;5076102;28;20101;-75
2022/08/18 00:09:35;;;;;;;19.55;11.40;;;;;;;;;;5111164;28;20481;-76
2022/08/18 00:12:02;;;;;;;23.52;12.18;;;;;;;;;;5102454;28;20404;-75
2022/08/18 00:14:28;;;;;;;15.48;11.93;;;;;;;;;;5105512;28;20051;-75
2022/08/18 00:16:54;;;;;;;16.77;12.43;;;;;;;;;;5076653;28;20062;-75
2022/08/18 00:19:21;;;;;;;20.60;13.40;;;;;;;;;;5106097;28;20079;-75
2022/08/18 00:21:47;;;;;;;21.35;13.23;;;;;;;;;;5096164;28;20054;-75
2022/08/18 00:24:13;;;;;;;22.63;14.18;;;;;;;;;;5081476;28;20477;-75
2022/08/18 00:26:39;;;;;;;22.70;14.18;;;;;;;;;;5089683;28;20048;-75
2022/08/18 00:29:05;;;;;;;18.67;13.35;;;;;;;;;;5084088;28;20044;-75
2022/08/18 00:31:32;;;;;;;18.60;13.65;;;;;;;;;;5113356;28;20044;-74
2022/08/18 00:33:59;;;;;;;23.02;13.20;;;;;;;;;;5105449;28;20047;-75
2022/08/18 00:36:25;;;;;;;21.02;12.52;;;;;;;;;;5098835;28;20040;-75
2022/08/18 00:38:51;;;;;;;16.52;12.43;;;;;;;;;;5108889;28;20390;-75
2022/08/18 00:41:17;;;;;;;22.85;13.52;;;;;;;;;;5102769;28;20515;-75
2022/08/18 00:43:50;;;;;;;17.58;12.18;;;;;;;;;;5104847;28;20507;-75
2022/08/18 00:46:25;;;;;;;16.67;12.05;;;;;;;;;;5086391;28;20538;-75
2022/08/18 00:48:51;;;;;;;15.05;11.57;;;;;;;;;;5096874;28;20158;-75
2022/08/18 00:51:24;;;;;;;18.60;11.00;;;;;;;;;;5102295;28;20043;-75
2022/08/18 00:53:52;;;;;;;16.67;11.65;;;;;;;;;;5096858;28;20128;-75
2022/08/18 00:56:21;;;;;;;17.33;10.98;;;;;;;;;;5096356;28;20393;-75
2022/08/18 00:58:57;;;;;;;15.95;10.50;;;;;;;;;;5060299;28;20058;-75
2022/08/18 01:01:24;;;;;;;21.42;12.07;;;;;;;;;;5097453;28;20165;-75
2022/08/18 01:03:52;;;;;;;18.13;11.90;;;;;;;;;;5081599;28;20044;-75
2022/08/18 01:06:31;;;;;;;19.38;12.38;;;;;;;;;;5096224;28;20043;-76
2022/08/18 01:08:57;;;;;;;19.58;11.82;;;;;;;;;;5106929;28;20414;-76
2022/08/18 01:11:24;;;;;;;16.67;11.73;;;;;;;;;;5097237;28;20181;-76
2022/08/18 01:13:50;;;;;;;20.60;12.93;;;;;;;;;;5098925;28;20042;-75
2022/08/18 01:21:50;;;;;;;26.52;13.68;;;;;;;;;;5073810;28;20410;-75
2022/08/18 01:24:18;;;;;;;24.13;13.68;;;;;;;;;;5093422;28;20066;-75
2022/08/18 01:26:48;;;;;;;23.58;13.63;;;;;;;;;;5095223;28;20543;-75
2022/08/18 01:29:15;;;;;;;19.47;12.83;;;;;;;;;;5092846;28;20082;-76
2022/08/18 01:31:45;;;;;;;18.63;12.95;;;;;;;;;;5095005;28;20383;-76
2022/08/18 01:34:12;;;;;;;17.60;12.57;;;;;;;;;;5106054;28;20043;-76
2022/08/18 01:36:40;;;;;;;17.25;11.88;;;;;;;;;;5111950;28;20050;-76
2022/08/18 01:39:07;;;;;;;19.90;12.27;;;;;;;;;;5105947;28;20044;-76
2022/08/18 01:41:33;;;;;;;21.40;11.93;;;;;;;;;;5091930;28;20509;-76
2022/08/18 01:44:00;;;;;;;20.60;12.27;;;;;;;;;;5099487;28;20036;-76
2022/08/18 01:46:27;;;;;;;17.75;11.68;;;;;;;;;;5105690;28;20048;-75
2022/08/18 01:48:53;;;;;;;15.23;11.23;;;;;;;;;;5098585;28;20036;-76
2022/08/18 01:51:20;;;;;;;18.48;11.52;;;;;;;;;;5102005;28;20123;-76
2022/08/18 01:53:50;;;;;;;18.38;11.13;;;;;;;;;;5099785;28;20056;-76
2022/08/18 01:56:19;;;;;;;20.63;11.55;;;;;;;;;;5075357;28;20063;-75
2022/08/18 01:58:46;;;;;;;22.48;11.98;;;;;;;;;;5093239;28;20698;-75
2022/08/18 02:01:13;;;;;;;20.10;12.63;;;;;;;;;;5097609;28;20066;-75
2022/08/18 02:03:43;;;;;;;22.90;12.18;;;;;;;;;;5092753;28;20074;-75
2022/08/18 02:06:09;;;;;;;21.20;12.15;;;;;;;;;;5092075;28;20047;-75
2022/08/18 02:08:37;;;;;;;20.98;12.52;;;;;;;;;;5106906;28;20032;-76
2022/08/18 02:11:03;;;;;;;20.02;12.18;;;;;;;;;;5098399;28;20039;-75
2022/08/18 02:13:29;;;;;;;23.17;12.65;;;;;;;;;;5105786;28;20482;-75
2022/08/18 02:15:55;;;;;;;22.80;12.35;;;;;;;;;;5093376;28;20052;-75
2022/08/18 02:18:23;;;;;;;20.40;11.48;;;;;;;;;;5101837;28;20032;-75
2022/08/18 02:20:49;;;;;;;18.85;11.32;;;;;;;;;;5112400;28;20404;-75
2022/08/18 02:23:16;;;;;;;23.58;13.25;;;;;;;;;;5111625;28;20498;-75
2022/08/18 02:25:43;;;;;;;28.95;14.57;;;;;;;;;;5093422;28;20999;-75
2022/08/18 02:28:09;;;;;;;20.77;12.90;;;;;;;;;;5104745;28;20123;-75
2022/08/18 02:30:38;;;;;;;25.48;12.63;;;;;;;;;;5094075;28;20059;-75
2022/08/18 02:33:08;;;;;;;20.67;12.52;;;;;;;;;;5087699;28;20048;-75
2022/08/18 02:35:35;;;;;;;16.45;11.35;;;;;;;;;;5092419;28;20390;-75
2022/08/18 02:38:02;;;;;;;17.52;11.48;;;;;;;;;;5102425;28;20044;-75
2022/08/18 02:40:28;;;;;;;19.00;11.15;;;;;;;;;;5102055;28;20036;-75
2022/08/18 02:42:54;;;;;;;15.65;9.98;;;;;;;;;;5096548;28;20119;-75
2022/08/18 02:45:24;;;;;;;13.80;9.73;;;;;;;;;;5097377;28;20794;-75
2022/08/18 02:47:53;;;;;;;16.75;10.27;;;;;;;;;;5112743;28;20075;-75
2022/08/18 02:50:20;;;;;;;22.13;11.57;;;;;;;;;;5086933;28;20101;-75
2022/08/18 02:52:46;;;;;;;18.70;10.75;;;;;;;;;;5079672;28;20513;-75
2022/08/18 02:55:12;;;;;;;25.15;12.35;;;;;;;;;;5076305;28;20497;-75
2022/08/18 02:57:46;;;;;;;27.75;12.02;;;;;;;;;;5079600;28;20108;-75
2022/08/18 03:00:14;;;;;;;20.33;11.98;;;;;;;;;;5095597;28;20044;-75
2022/08/18 03:02:45;;;;;;;21.98;11.85;;;;;;;;;;5105916;28;20135;-75
2022/08/18 03:05:12;;;;;;;18.50;11.57;;;;;;;;;;5108409;28;20047;-75
2022/08/18 03:07:38;;;;;;;22.75;12.68;;;;;;;;;;5079536;28;20136;-75
2022/08/18 03:10:04;;;;;;;24.48;12.18;;;;;;;;;;5099051;28;20079;-75
2022/08/18 03:12:30;;;;;;;23.63;11.35;;;;;;;;;;5116123;28;20039;-75
2022/08/18 03:14:56;;;;;;;25.63;12.32;;;;;;;;;;5114724;28;20043;-75
2022/08/18 03:17:23;;;;;;;20.63;12.10;;;;;;;;;;5099432;28;20104;-75
2022/08/18 03:19:49;;;;;;;22.35;12.32;;;;;;;;;;5102579;28;20046;-76
2022/08/18 03:22:15;;;;;;;20.88;12.02;;;;;;;;;;5101194;28;20040;-75
2022/08/18 03:24:42;;;;;;;20.65;12.32;;;;;;;;;;5104183;28;20089;-75
2022/08/18 03:27:08;;;;;;;30.90;13.35;;;;;;;;;;5093766;28;20047;-75
2022/08/18 03:29:35;;;;;;;22.02;12.77;;;;;;;;;;5108589;28;20044;-76
2022/08/18 03:32:02;;;;;;;28.83;14.23;;;;;;;;;;5098907;28;20051;-75
2022/08/18 03:34:28;;;;;;;22.45;13.05;;;;;;;;;;5101883;28;20040;-75
2022/08/18 03:36:54;;;;;;;21.42;13.98;;;;;;;;;;5077822;28;20039;-75
2022/08/18 03:39:24;;;;;;;20.80;13.82;;;;;;;;;;5081051;28;20115;-75
2022/08/18 03:41:53;;;;;;;23.33;14.57;;;;;;;;;;5075179;28;20454;-75
2022/08/18 03:44:20;;;;;;;24.83;13.75;;;;;;;;;;5095959;28;20097;-75
2022/08/18 03:46:47;;;;;;;29.45;14.30;;;;;;;;;;5089804;28;20073;-75
2022/08/18 03:49:13;;;;;;;27.08;15.10;;;;;;;;;;5094925;28;20040;-75
2022/08/18 03:51:42;;;;;;;26.05;15.32;;;;;;;;;;5108221;28;20505;-75
2022/08/18 03:54:09;;;;;;;27.63;15.07;;;;;;;;;;5094575;28;20490;-76
2022/08/18 03:56:37;;;;;;;25.98;15.75;;;;;;;;;;5098388;28;20110;-76
2022/08/18 03:59:07;;;;;;;21.85;13.60;;;;;;;;;;5098967;28;20404;-75
2022/08/18 04:01:38;;;;;;;28.40;15.80;;;;;;;;;;5111588;28;20093;-76
2022/08/18 04:04:04;;;;;;;27.92;16.60;;;;;;;;;;5088675;28;20035;-76
2022/08/18 04:06:42;;;;;;;21.58;14.68;;;;;;;;;;5094967;28;20044;-76
2022/08/18 04:09:10;;;;;;;31.10;16.67;;;;;;;;;;5102711;28;20127;-76
2022/08/18 04:11:37;;;;;;;22.55;16.27;;;;;;;;;;5103425;28;20105;-76
2022/08/18 04:14:03;;;;;;;27.05;16.60;;;;;;;;;;5104533;28;20040;-75
2022/08/18 04:16:33;;;;;;;31.90;18.48;;;;;;;;;;5095073;28;20048;-75
2022/08/18 04:19:03;;;;;;;27.08;16.65;;;;;;;;;;5084165;28;20048;-75
2022/08/18 04:21:31;;;;;;;24.40;17.55;;;;;;;;;;5114242;28;20455;-75
2022/08/18 04:24:03;;;;;;;28.15;18.10;;;;;;;;;;5096933;28;20056;-75
2022/08/18 04:26:30;;;;;;;26.73;16.48;;;;;;;;;;5099878;28;20044;-75
2022/08/18 04:28:58;;;;;;;25.55;16.90;;;;;;;;;;5077439;28;20047;-75
2022/08/18 04:31:25;;;;;;;25.98;18.30;;;;;;;;;;5092838;28;20093;-75
2022/08/18 04:33:51;;;;;;;28.23;19.05;;;;;;;;;;5107670;28;20140;-75
2022/08/18 04:36:17;;;;;;;23.98;17.40;;;;;;;;;;5102018;28;20035;-75
2022/08/18 04:38:43;;;;;;;31.48;17.98;;;;;;;;;;5095036;28;20048;-75
2022/08/18 04:41:11;;;;;;;32.67;19.83;;;;;;;;;;5112145;28;20043;-75
2022/08/18 04:43:37;;;;;;;27.13;17.35;;;;;;;;;;5074250;28;20052;-75
2022/08/18 04:46:05;;;;;;;35.03;19.77;;;;;;;;;;5073759;28;20632;-75
2022/08/18 04:48:33;;;;;;;27.30;19.20;;;;;;;;;;5101409;28;20040;-75
2022/08/18 04:51:10;;;;;;;26.80;17.25;;;;;;;;;;5098463;28;20513;-75
2022/08/18 04:53:45;;;;;;;27.25;17.45;;;;;;;;;;5093704;28;20560;-76
2022/08/18 04:56:25;;;;;;;29.92;18.95;;;;;;;;;;5078110;28;20052;-75
2022/08/18 04:58:55;;;;;;;32.50;18.67;;;;;;;;;;5080370;28;20065;-76
2022/08/18 05:01:23;;;;;;;39.28;18.73;;;;;;;;;;5089756;28;20123;-76
2022/08/18 05:03:50;;;;;;;30.52;18.50;;;;;;;;;;5100628;28;20520;-76
2022/08/18 05:06:16;;;;;;;31.05;18.55;;;;;;;;;;5100920;28;20040;-76
2022/08/18 05:08:42;;;;;;;27.30;17.83;;;;;;;;;;5092456;28;20036;-77
2022/08/18 05:11:08;;;;;;;33.40;17.83;;;;;;;;;;5093806;28;20048;-76
2022/08/18 05:13:35;;;;;;;31.85;18.40;;;;;;;;;;5105919;28;20401;-76
2022/08/18 05:16:05;;;;;;;29.55;17.20;;;;;;;;;;5109085;28;20047;-76
2022/08/18 05:18:32;;;;;;;34.63;18.30;;;;;;;;;;5102503;28;20122;-76
2022/08/18 05:20:59;;;;;;;30.10;17.42;;;;;;;;;;5111994;28;20040;-76
2022/08/18 05:23:26;;;;;;;28.30;17.60;;;;;;;;;;5108568;28;20505;-76
2022/08/18 05:25:57;;;;;;;26.05;14.93;;;;;;;;;;5092994;28;20040;-76
2022/08/18 05:28:23;;;;;;;27.67;15.50;;;;;;;;;;5092632;28;20045;-76
2022/08/18 05:30:48;;;;;;;30.35;15.73;;;;;;;;;;5111866;28;20031;-76
2022/08/18 05:33:14;;;;;;;29.48;16.25;;;;;;;;;;5103433;28;20490;-76
2022/08/18 05:35:44;;;;;;;29.73;14.75;;;;;;;;;;5099714;28;20081;-76
2022/08/18 05:38:29;;;;;;;26.05;14.75;;;;;;;;;;5079358;28;20500;-76
2022/08/18 05:41:04;;;;;;;26.65;15.02;;;;;;;;;;5096302;28;20135;-76
2022/08/18 05:43:30;;;;;;;24.80;14.02;;;;;;;;;;5093596;28;20048;-76
2022/08/18 05:45:57;;;;;;;24.60;13.88;;;;;;;;;;5085241;28;20398;-76
2022/08/18 05:48:24;;;;;;;26.75;12.85;;;;;;;;;;5091789;28;20044;-76
2022/08/18 05:50:50;;;;;;;26.85;13.02;;;;;;;;;;5092211;28;20478;-76
2022/08/18 05:56:45;;;;;;;23.13;11.98;;;;;;;;;;5074096;28;20093;-76
2022/08/18 05:58:54;;;;;;;20.33;11.18;;;;;;;;;;5091653;28;20618;-76
2022/08/18 06:01:29;;;;;;;22.30;11.90;;;;;;;;;;5092635;28;20089;-76
2022/08/18 06:03:58;;;;;;;18.75;9.73;;;;;;;;;;5099416;28;20043;-76
2022/08/18 06:06:28;;;;;;;22.17;11.80;;;;;;;;;;5090620;28;20450;-75
2022/08/18 06:09:10;;;;;;;17.20;9.98;;;;;;;;;;5114139;28;20043;-76
2022/08/18 06:11:36;;;;;;;17.17;9.48;;;;;;;;;;5117899;28;20039;-75
2022/08/18 06:14:02;;;;;;;25.23;11.18;;;;;;;;;;5101475;28;20040;-75
2022/08/18 06:16:46;;;;;;;18.38;9.90;;;;;;;;;;5085003;28;20044;-76
2022/08/18 06:19:28;;;;;;;20.83;10.80;;;;;;;;;;5083491;28;20051;-75
2022/08/18 06:21:54;;;;;;;;;;;;;;;;;;5119810;28;20043;-75
2022/08/18 06:24:20;;;;;;;22.88;10.63;;;;;;;;;;5120649;28;19926;-75
2022/08/18 06:26:52;;;;;;;21.08;9.45;;;;;;;;;;5119424;28;20039;-75
2022/08/18 06:29:34;;;;;;;19.75;9.07;;;;;;;;;;5083639;28;20505;-75
2022/08/18 06:32:21;;;;;;;17.17;9.73;;;;;;;;;;5101540;28;20047;-75
2022/08/18 06:35:00;;;;;;;16.10;9.15;;;;;;;;;;5112319;28;20067;-75
2022/08/18 06:38:37;;;;;;;17.08;9.07;;;;;;;;;;5098993;28;20513;-75
2022/08/18 06:40:28;;;;;;;54.15;10.88;;;;;;;;;;5112288;28;20044;-74
2022/08/18 06:42:54;;;;;;;24.67;9.68;;;;;;;;;;5095912;28;20076;-74
2022/08/18 06:45:50;;;;;;;16.92;9.02;;;;;;;;;;5077231;28;20090;-74
2022/08/18 06:48:31;;;;;;;16.88;9.27;;;;;;;;;;5104280;28;20040;-74
2022/08/18 06:50:59;;;;;;;;;;;;;;;;;;5117706;28;20050;-74
2022/08/18 06:53:44;;;;;;;17.55;9.65;;;;;;;;;;5096471;28;19920;-73
2022/08/18 06:56:22;;;;;;;36.95;8.98;;;;;;;;;;5077533;28;20047;-73
2022/08/18 06:58:49;;;;;;;23.38;9.50;;;;;;;;;;5079545;28;20087;-74
2022/08/18 07:01:16;;;;;;;27.42;9.73;;;;;;;;;;5098090;28;20048;-72
2022/08/18 07:03:45;;;;;;;14.90;9.05;;;;;;;;;;5116170;28;20057;-78
2022/08/18 07:06:24;;;;;;;21.25;10.00;;;;;;;;;;5088185;28;20054;-73
2022/08/18 07:08:54;;;;;;;16.10;9.45;;;;;;;;;;5083512;28;20048;-72
2022/08/18 07:11:25;;;;;;;26.27;9.50;;;;;;;;;;5083595;28;20097;-75
2022/08/18 07:13:53;;;;;;;15.10;8.43;;;;;;;;;;5084587;28;20336;-77
2022/08/18 07:16:23;;;;;;;13.45;8.70;;;;;;;;;;5098544;28;20093;-75
2022/08/18 07:18:50;;;;;;;13.88;8.80;;;;;;;;;;5082923;28;20036;-73
2022/08/18 07:21:27;;;;;;;23.23;8.70;;;;;;;;;;5114974;28;20047;-74
2022/08/18 07:24:02;;;;;;;20.42;8.55;;;;;;;;;;5099276;28;20483;-74
2022/08/18 07:26:28;;;;;;;16.80;8.45;;;;;;;;;;5107114;28;20040;-74
2022/08/18 07:28:54;;;;;;;28.08;9.02;;;;;;;;;;5116206;28;20130;-73
2022/08/18 07:31:25;;;;;;;15.48;8.25;;;;;;;;;;5098445;28;20074;-74
2022/08/18 07:33:57;;;;;;;27.42;9.50;;;;;;;;;;5083472;28;20126;-74
2022/08/18 07:36:28;;;;;;;16.80;8.98;;;;;;;;;;5100190;28;20047;-74
2022/08/18 07:38:56;;;;;;;18.15;9.40;;;;;;;;;;5093289;28;20095;-74
2022/08/18 07:41:34;;;;;;;13.25;9.20;;;;;;;;;;5099375;28;20048;-74
2022/08/18 07:44:18;;;;;;;17.00;9.05;;;;;;;;;;5097737;28;20088;-74
2022/08/18 07:47:03;;;;;;;16.23;9.40;;;;;;;;;;5096835;28;20071;-74
2022/08/18 07:49:32;;;;;;;19.05;9.10;;;;;;;;;;5102050;28;20051;-74
2022/08/18 07:52:01;;;;;;;14.45;8.95;;;;;;;;;;5097139;28;20048;-73
2022/08/18 07:54:30;;;;;;;25.45;8.02;;;;;;;;;;5080325;28;20536;-74
2022/08/18 07:57:01;;;;;;;15.57;9.10;;;;;;;;;;5096775;28;20103;-74
2022/08/18 07:59:27;;;;;;;;;;;;;;;;;;5079541;28;20486;-74
2022/08/18 08:01:58;;;;;;;19.75;8.07;;;;;;;;;;5097226;28;19920;-74
2022/08/18 08:04:24;;;;;;;;;;;;;;;;;;5097645;28;20436;-74
2022/08/18 08:06:54;;;;;;;14.15;7.97;;;;;;;;;;5096973;28;19944;-74
2022/08/18 08:09:25;;;;;;;13.70;7.70;;;;;;;;;;5114483;28;20047;-74
2022/08/18 08:11:59;;;;;;;14.52;8.13;;;;;;;;;;5116928;28;20074;-74
2022/08/18 08:14:34;;;;;;;13.90;7.47;;;;;;;;;;5081452;28;20044;-74
2022/08/18 08:17:22;;;;;;;13.80;6.70;;;;;;;;;;5116810;28;20508;-73
2022/08/18 08:20:07;;;;;;;13.75;7.57;;;;;;;;;;5076560;28;20126;-73
2022/08/18 08:22:52;;;;;;;13.38;6.43;;;;;;;;;;5090963;28;20044;-74
2022/08/18 08:25:21;;;;;;;15.73;7.57;;;;;;;;;;5116716;28;20100;-74
2022/08/18 08:27:47;;;;;;;13.75;7.20;;;;;;;;;;5081167;28;20489;-73
2022/08/18 08:30:16;;;;;;;16.38;6.50;;;;;;;;;;5117539;28;20031;-74
2022/08/18 08:32:48;;;;;;;12.30;6.20;;;;;;;;;;5114251;28;20055;-73
2022/08/18 08:35:15;;;;;;;11.60;5.78;;;;;;;;;;5107397;28;20043;-74
2022/08/18 08:38:02;;;;;;;10.57;5.82;;;;;;;;;;5096604;28;20057;-73
2022/08/18 08:40:33;;;;;;;12.65;5.40;;;;;;;;;;5086257;28;20040;-74
2022/08/18 08:43:03;;;;;;;11.35;4.80;;;;;;;;;;5100252;28;20040;-74
2022/08/18 08:45:31;;;;;;;10.32;4.95;;;;;;;;;;5082093;28;20528;-73
2022/08/18 08:48:06;;;;;;;10.63;4.68;;;;;;;;;;5062693;28;20115;-74
2022/08/18 08:50:35;;;;;;;12.07;5.90;;;;;;;;;;5087375;28;20044;-73
2022/08/18 08:53:05;;;;;;;9.07;5.07;;;;;;;;;;5079952;28;20044;-74
2022/08/18 08:55:33;;;;;;;10.07;6.22;;;;;;;;;;5096194;28;20052;-73
2022/08/18 08:58:14;;;;;;;9.65;5.82;;;;;;;;;;5097453;28;20044;-74
2022/08/18 09:00:42;;;;;;;11.18;6.13;;;;;;;;;;5084287;28;20067;-74
2022/08/18 09:03:20;;;;;;;9.70;5.60;;;;;;;;;;5081863;28;20505;-74
2022/08/18 09:05:56;;;;;;;9.20;5.50;;;;;;;;;;5100691;28;20067;-74
2022/08/18 09:08:31;;;;;;;9.20;5.97;;;;;;;;;;5104232;28;20028;-73
2022/08/18 09:11:09;;;;;;;9.90;5.63;;;;;;;;;;5105147;28;20052;-73
2022/08/18 09:13:44;;;;;;;11.23;5.78;;;;;;;;;;5114210;28;20055;-73
2022/08/18 09:16:10;;;;;;;14.05;6.15;;;;;;;;;;5113445;28;20056;-73
2022/08/18 09:18:45;;;;;;;11.02;6.22;;;;;;;;;;5093377;28;20043;-74
2022/08/18 09:21:30;;;;;;;11.13;6.40;;;;;;;;;;5111763;28;20048;-73
2022/08/18 09:24:15;;;;;;;13.13;6.80;;;;;;;;;;5113608;28;20044;-73
2022/08/18 09:26:44;;;;;;;11.80;6.60;;;;;;;;;;5103140;28;20055;-73
2022/08/18 09:29:15;;;;;;;13.13;6.97;;;;;;;;;;5100654;28;20052;-74
2022/08/18 09:31:42;;;;;;;12.60;6.50;;;;;;;;;;5122160;28;20521;-74
2022/08/18 09:34:08;;;;;;;10.77;6.30;;;;;;;;;;5106812;28;20036;-73
2022/08/18 09:36:40;;;;;;;13.98;6.32;;;;;;;;;;5099645;28;20044;-73
2022/08/18 09:41:59;;;;;;;12.73;5.93;;;;;;;;;;5102252;28;20055;-74
2022/08/18 09:44:43;;;;;;;16.75;6.70;;;;;;;;;;5102422;28;20047;-73
2022/08/18 09:47:09;;;;;;;12.73;6.78;;;;;;;;;;5100380;28;20044;-73
2022/08/18 09:49:41;;;;;;;12.20;7.05;;;;;;;;;;5096351;28;20473;-74
2022/08/18 09:52:25;;;;;;;14.23;6.50;;;;;;;;;;5076150;28;20542;-74
2022/08/18 09:55:26;;;;;;;11.45;6.70;;;;;;;;;;5074261;28;20520;-73
2022/08/18 09:57:52;;;;;;;;;;;;;;;;;;5092629;28;20056;-73
2022/08/18 10:00:26;;;;;;;16.08;6.38;;;;;;;;;;5092402;28;20277;-73
2022/08/18 10:02:52;;;;;;;13.35;5.90;;;;;;;;;;5057617;28;20050;-73
2022/08/18 10:05:19;;;;;;;10.93;5.85;;;;;;;;;;5093687;28;20043;-73
2022/08/18 10:07:45;;;;;;;10.70;5.47;;;;;;;;;;5094195;28;20051;-73
2022/08/18 10:10:11;;;;;;;10.88;4.82;;;;;;;;;;5112839;28;20036;-74
2022/08/18 10:12:55;;;;;;;11.90;5.47;;;;;;;;;;5105648;28;20052;-74
2022/08/18 10:15:22;;;;;;;11.82;5.10;;;;;;;;;;5092698;28;20456;-73
2022/08/18 10:17:48;;;;;;;9.65;4.70;;;;;;;;;;5092142;28;20387;-74
2022/08/18 10:20:25;;;;;;;11.73;5.10;;;;;;;;;;5093280;28;20079;-73
2022/08/18 10:22:52;;;;;;;9.68;4.63;;;;;;;;;;5090558;28;20090;-73
2022/08/18 10:25:33;;;;;;;8.00;3.78;;;;;;;;;;5101098;28;20055;-73
2022/08/18 10:28:04;;;;;;;9.77;3.88;;;;;;;;;;5092963;28;20047;-73
2022/08/18 10:30:33;;;;;;;10.07;4.38;;;;;;;;;;5092238;28;20510;-74
2022/08/18 10:33:00;;;;;;;9.98;4.80;;;;;;;;;;5092651;28;20097;-74
2022/08/18 10:35:35;;;;;;;11.63;4.40;;;;;;;;;;5094261;28;20074;-74
2022/08/18 10:38:18;;;;;;;10.07;4.53;;;;;;;;;;5104795;28;20040;-74
2022/08/18 10:40:53;;;;;;;9.45;4.30;;;;;;;;;;5101868;28;20054;-74
2022/08/18 10:43:29;;;;;;;11.13;4.53;;;;;;;;;;5104466;28;20055;-74
2022/08/18 10:45:56;;;;;;;9.82;3.60;;;;;;;;;;5110649;28;20048;-74
2022/08/18 10:48:28;;;;;;;8.77;3.60;;;;;;;;;;5110151;28;20059;-74
2022/08/18 10:51:04;;;;;;;8.82;3.17;;;;;;;;;;5112698;28;20069;-74
2022/08/18 10:53:44;;;;;;;8.18;3.08;;;;;;;;;;5101159;28;20055;-74
2022/08/18 10:56:11;;;;;;;5.93;2.80;;;;;;;;;;5098162;28;20105;-73
2022/08/18 10:58:40;;;;;;;6.18;3.45;;;;;;;;;;5123739;28;20079;-74
2022/08/18 11:01:11;;;;;;;9.00;3.80;;;;;;;;;;5130225;28;20047;-73
2022/08/18 11:03:49;;;;;;;7.13;3.78;;;;;;;;;;5113089;28;20032;-73
2022/08/18 11:06:20;;;;;;;7.60;3.42;;;;;;;;;;5107742;28;20056;-73
2022/08/18 11:08:49;;;;;;;8.63;3.70;;;;;;;;;;5106714;28;20075;-72
2022/08/18 11:11:21;;;;;;;7.95;3.75;;;;;;;;;;5109714;28;20485;-73
2022/08/18 11:13:50;;;;;;;9.68;3.55;;;;;;;;;;5105465;28;20066;-73
2022/08/18 11:16:22;;;;;;;10.40;3.47;;;;;;;;;;5104057;28;20094;-73
2022/08/18 11:18:51;;;;;;;8.07;3.33;;;;;;;;;;5118585;28;20035;-73
2022/08/18 11:21:35;;;;;;;8.55;2.90;;;;;;;;;;5108926;28;20127;-73
2022/08/18 11:24:12;;;;;;;7.13;2.70;;;;;;;;;;5125578;28;20373;-73
2022/08/18 11:26:50;;;;;;;9.93;3.08;;;;;;;;;;5121350;28;20047;-72
2022/08/18 11:29:27;;;;;;;7.07;2.20;;;;;;;;;;5115496;28;20559;-72
2022/08/18 11:32:02;;;;;;;6.22;2.30;;;;;;;;;;5102036;28;20048;-73
2022/08/18 11:34:46;;;;;;;6.93;2.08;;;;;;;;;;5118651;28;20047;-72
2022/08/18 11:37:20;;;;;;;8.85;2.80;;;;;;;;;;5115002;28;20051;-72
2022/08/18 11:39:48;;;;;;;7.45;2.33;;;;;;;;;;5107995;28;20549;-71
2022/08/18 11:42:15;;;;;;;6.47;2.03;;;;;;;;;;5110914;28;20123;-72
2022/08/18 11:44:41;;;;;;;7.88;2.75;;;;;;;;;;5119879;28;20489;-72
2022/08/18 11:47:12;;;;;;;6.38;2.30;;;;;;;;;;5105371;28;20088;-72
2022/08/18 11:49:44;;;;;;;8.65;2.30;;;;;;;;;;5117094;28;20061;-72
2022/08/18 11:52:16;;;;;;;8.68;2.65;;;;;;;;;;5105751;28;20055;-74
2022/08/18 11:54:45;;;;;;;8.93;2.85;;;;;;;;;;5102268;28;20040;-73
2022/08/18 11:57:30;;;;;;;9.15;2.95;;;;;;;;;;5122022;28;20043;-73
2022/08/18 11:59:56;;;;;;;8.90;2.33;;;;;;;;;;5118827;28;20508;-73
2022/08/18 12:02:24;;;;;;;7.07;2.67;;;;;;;;;;5105931;28;20055;-72
2022/08/18 12:05:02;;;;;;;8.02;2.60;;;;;;;;;;5118816;28;20039;-72
2022/08/18 12:07:34;;;;;;;7.53;2.20;;;;;;;;;;5117703;28;20505;-72
2022/08/18 12:10:11;;;;;;;7.65;2.22;;;;;;;;;;5101087;28;20995;-73
2022/08/18 12:12:44;;;;;;;9.18;2.30;;;;;;;;;;5080605;28;20040;-72
2022/08/18 12:15:13;;;;;;;8.80;2.40;;;;;;;;;;5079569;28;20122;-72
2022/08/18 12:17:40;;;;;;;7.70;2.40;;;;;;;;;;5100615;28;20047;-73
2022/08/18 12:20:07;;;;;;;6.30;2.20;;;;;;;;;;5106172;28;20044;-73
2022/08/18 12:22:35;;;;;;;7.28;2.30;;;;;;;;;;5100335;28;20032;-72
2022/08/18 12:25:01;;;;;;;7.40;2.47;;;;;;;;;;5080691;28;20080;-72
2022/08/18 12:27:29;;;;;;;9.43;2.75;;;;;;;;;;5099192;28;20059;-72
2022/08/18 12:29:57;;;;;;;7.22;2.72;;;;;;;;;;5101028;28;20044;-73
2022/08/18 12:32:24;;;;;;;7.13;2.40;;;;;;;;;;5101894;28;20048;-73
2022/08/18 12:34:51;;;;;;;5.25;2.33;;;;;;;;;;5111676;28;20047;-72
2022/08/18 12:37:18;;;;;;;6.60;2.00;;;;;;;;;;5103707;28;20393;-73
2022/08/18 12:39:44;;;;;;;6.95;2.00;;;;;;;;;;5121651;28;20055;-73
2022/08/18 12:42:11;;;;;;;6.22;2.35;;;;;;;;;;5124294;28;20039;-73
2022/08/18 12:44:37;;;;;;;6.50;2.60;;;;;;;;;;5120051;28;20048;-73
2022/08/18 12:47:06;;;;;;;6.03;2.30;;;;;;;;;;5101790;28;20051;-73
2022/08/18 12:49:33;;;;;;;7.10;2.55;;;;;;;;;;5105123;28;20040;-71
2022/08/18 12:51:59;;;;;;;7.63;2.70;;;;;;;;;;5099779;28;20065;-76
2022/08/18 12:54:25;;;;;;;5.93;2.42;;;;;;;;;;5102238;28;20489;-72
2022/08/18 12:56:53;;;;;;;7.90;2.63;;;;;;;;;;5108452;28;20405;-72
2022/08/18 12:59:19;;;;;;;8.88;2.70;;;;;;;;;;5118241;28;20078;-73
2022/08/18 13:01:45;;;;;;;7.82;2.50;;;;;;;;;;5119811;28;20043;-72
2022/08/18 13:04:11;;;;;;;9.27;2.55;;;;;;;;;;5116511;28;20050;-72
2022/08/18 13:06:40;;;;;;;8.70;2.90;;;;;;;;;;5120244;28;20066;-74
2022/08/18 13:09:06;;;;;;;6.38;2.60;;;;;;;;;;5117455;28;20055;-72
2022/08/18 13:11:32;;;;;;;8.18;3.13;;;;;;;;;;5097910;28;20044;-72
2022/08/18 13:13:59;;;;;;;7.80;2.30;;;;;;;;;;5097242;28;20493;-74
2022/08/18 13:16:26;;;;;;;6.03;2.20;;;;;;;;;;5099305;28;20052;-73
2022/08/18 13:18:53;;;;;;;9.55;2.10;;;;;;;;;;5099350;28;20075;-72
2022/08/18 13:21:19;;;;;;;6.60;2.35;;;;;;;;;;5098230;28;20066;-75
2022/08/18 13:23:45;;;;;;;5.15;2.00;;;;;;;;;;5097188;28;20067;-73
2022/08/18 13:26:15;;;;;;;4.95;2.10;;;;;;;;;;5113016;28;20130;-72
2022/08/18 13:28:41;;;;;;;8.50;2.17;;;;;;;;;;5106999;28;20481;-74
2022/08/18 13:31:07;;;;;;;5.22;2.20;;;;;;;;;;5097900;28;20394;-72
2022/08/18 13:33:34;;;;;;;8.70;1.88;;;;;;;;;;5097242;28;20050;-73
2022/08/18 13:36:00;;;;;;;8.05;2.20;;;;;;;;;;5095667;28;20040;-71
2022/08/18 13:38:26;;;;;;;7.25;2.20;;;;;;;;;;5094158;28;20048;-72
2022/08/18 13:40:53;;;;;;;5.07;1.90;;;;;;;;;;5095229;28;20051;-72
2022/08/18 13:43:27;;;;;;;5.85;1.80;;;;;;;;;;5094717;28;20048;-72
2022/08/18 13:45:53;;;;;;;5.93;1.83;;;;;;;;;;5096466;28;20040;-71
2022/08/18 13:48:19;;;;;;;5.53;1.70;;;;;;;;;;5099002;28;20051;-72
2022/08/18 13:50:45;;;;;;;5.43;1.80;;;;;;;;;;5098865;28;20096;-72
2022/08/18 13:53:18;;;;;;;6.90;2.15;;;;;;;;;;5101799;28;20166;-73
2022/08/18 13:55:44;;;;;;;5.32;1.90;;;;;;;;;;5106179;28;20419;-74
2022/08/18 13:58:11;;;;;;;6.40;2.10;;;;;;;;;;5096972;28;20091;-74
2022/08/18 14:00:37;;;;;;;7.80;1.88;;;;;;;;;;5109878;28;20397;-74
2022/08/18 14:03:03;;;;;;;5.22;1.90;;;;;;;;;;5112564;28;20051;-73
2022/08/18 14:05:30;;;;;;;6.95;2.30;;;;;;;;;;5112830;28;20040;-74
2022/08/18 14:07:56;;;;;;;5.70;2.25;;;;;;;;;;5112827;28;20079;-74
2022/08/18 14:10:23;;;;;;;6.53;2.10;;;;;;;;;;5112848;28;20100;-74
2022/08/18 14:12:52;;;;;;;6.05;2.15;;;;;;;;;;5105460;28;20048;-74
2022/08/18 14:15:18;;;;;;;5.63;2.25;;;;;;;;;;5092386;28;20055;-74
2022/08/18 14:17:44;;;;;;;7.53;2.25;;;;;;;;;;5111106;28;20051;-74
2022/08/18 14:28:27;;;;;;;5.20;2.13;;;;;;;;;;5093586;28;20055;-74
2022/08/18 14:30:53;;;;;;;6.25;2.40;;;;;;;;;;5096274;28;20050;-74
2022/08/18 14:33:20;;;;;;;6.38;2.50;;;;;;;;;;5096401;28;20071;-74
2022/08/18 14:35:47;;;;;;;5.65;2.30;;;;;;;;;;5096299;28;20232;-74
2022/08/18 14:38:15;;;;;;;5.25;2.15;;;;;;;;;;5095950;28;20040;-73
2022/08/18 14:40:41;;;;;;;5.82;2.25;;;;;;;;;;5080628;28;20383;-74
2022/08/18 14:43:08;;;;;;;7.45;2.20;;;;;;;;;;5115141;28;20047;-75
2022/08/18 14:45:34;;;;;;;4.95;2.05;;;;;;;;;;5116204;28;20040;-74
2022/08/18 14:48:01;;;;;;;7.18;2.75;;;;;;;;;;5116159;28;20056;-73
2022/08/18 14:50:28;;;;;;;7.18;3.15;;;;;;;;;;5089425;28;20048;-73
2022/08/18 14:52:54;;;;;;;9.23;2.88;;;;;;;;;;5095457;28;20173;-74
2022/08/18 14:55:20;;;;;;;7.63;2.70;;;;;;;;;;5112991;28;20048;-74
2022/08/18 14:57:46;;;;;;;5.65;2.10;;;;;;;;;;5097671;28;20134;-73
2022/08/18 15:00:14;;;;;;;5.55;2.13;;;;;;;;;;5098257;28;20052;-74
2022/08/18 15:02:41;;;;;;;7.00;2.55;;;;;;;;;;5101330;28;20047;-73
2022/08/18 15:05:07;;;;;;;7.25;2.55;;;;;;;;;;5101336;28;20094;-74
2022/08/18 15:07:36;;;;;;;5.70;2.78;;;;;;;;;;5095985;28;20127;-74